Time;durP1;ratioP1;P1;durP2;ratioP2;P2;SDS_P1;SDS_P2;PMS_P1;PMS_P2;Temp;Humidity;BMP_temperature;BMP_pressure;BME280_temperature;BME280_humidity;BME280_pressure;Samples;Min_cycle;Max_cycle;Signal;HPM_P1;HPM_P2
2022/11/16 00:01:24;;;;;;;1.37;0.80;;;18.00;53.40;;;;;;5094137;28;20720;-82
2022/11/16 00:03:54;;;;;;;3.13;0.95;;;17.80;53.20;;;;;;5094735;28;20368;-86
2022/11/16 00:06:22;;;;;;;2.05;0.93;;;17.90;54.10;;;;;;5093983;28;20400;-81
2022/11/16 00:11:38;;;;;;;2.40;0.83;;;18.00;53.40;;;;;;5094315;28;20462;-79
2022/11/16 00:14:06;;;;;;;2.20;0.80;;;18.20;53.10;;;;;;5094283;28;20371;-83
2022/11/16 00:16:33;;;;;;;3.70;0.80;;;18.40;51.80;;;;;;5094250;28;20384;-83
2022/11/16 00:19:03;;;;;;;2.38;0.85;;;18.40;52.70;;;;;;5094803;28;20744;-80
2022/11/16 00:21:31;;;;;;;2.25;0.73;;;18.50;50.60;;;;;;5093771;28;20361;-83
2022/11/16 00:23:58;;;;;;;1.05;0.70;;;18.50;51.40;;;;;;5094215;28;20376;-83
2022/11/16 00:26:25;;;;;;;15.63;13.95;;;18.50;52.30;;;;;;5093859;28;20391;-83
2022/11/16 00:28:53;;;;;;;6.80;5.65;;;18.60;51.50;;;;;;5093695;28;20898;-82
2022/11/16 00:31:21;;;;;;;1.60;0.80;;;18.70;51.60;;;;;;5093511;28;20874;-82
2022/11/16 00:33:49;;;;;;;2.45;1.50;;;18.90;51.00;;;;;;5093958;28;20377;-82
2022/11/16 00:36:16;;;;;;;2.70;0.70;;;19.00;51.30;;;;;;5093881;28;20369;-82
2022/11/16 00:38:43;;;;;;;1.92;0.65;;;19.30;50.10;;;;;;5093977;28;20380;-84
2022/11/16 00:41:10;;;;;;;1.13;0.82;;;19.60;50.20;;;;;;5093876;28;20368;-82
2022/11/16 00:43:42;;;;;;;1.75;0.90;;;19.50;50.30;;;;;;5094126;28;20399;-82
2022/11/16 00:46:09;;;;;;;2.95;0.93;;;19.70;50.40;;;;;;5108704;28;20353;-83
2022/11/16 00:48:36;;;;;;;2.42;0.80;;;19.70;51.00;;;;;;5114304;28;20363;-82
2022/11/16 00:51:03;;;;;;;1.00;0.50;;;19.20;48.00;;;;;;5114555;28;20372;-82
2022/11/16 00:53:31;;;;;;;1.50;0.70;;;18.90;46.30;;;;;;5111644;28;20376;-83
2022/11/16 00:55:58;;;;;;;0.80;0.50;;;19.00;48.20;;;;;;5112550;28;20380;-83
2022/11/16 00:58:25;;;;;;;1.20;0.60;;;19.20;47.60;;;;;;5096749;28;20364;-80
2022/11/16 01:00:52;;;;;;;1.67;0.75;;;19.30;48.50;;;;;;5094161;28;20380;-81
2022/11/16 01:03:19;;;;;;;2.10;0.70;;;19.30;49.00;;;;;;5094328;28;20383;-82
2022/11/16 01:05:46;;;;;;;2.67;0.60;;;19.30;50.10;;;;;;5095243;28;20396;-82
2022/11/16 01:08:13;;;;;;;5.57;4.15;;;19.20;48.80;;;;;;5094522;28;20419;-87
2022/11/16 01:10:41;;;;;;;7.10;5.88;;;18.90;50.10;;;;;;5093424;28;20400;-84
2022/11/16 01:13:09;;;;;;;10.63;7.43;;;19.00;50.20;;;;;;5094662;28;20396;-83
2022/11/16 01:15:36;;;;;;;10.82;7.13;;;18.80;49.20;;;;;;5093255;28;20379;-83
2022/11/16 01:18:03;;;;;;;8.73;7.40;;;18.80;50.20;;;;;;5094024;28;20364;-83
2022/11/16 01:20:30;;;;;;;1.55;0.70;;;18.70;49.60;;;;;;5093651;28;20372;-78
2022/11/16 01:22:57;;;;;;;7.43;5.45;;;18.70;48.20;;;;;;5093527;28;20455;-84
2022/11/16 01:25:24;;;;;;;1.87;0.90;;;18.60;49.10;;;;;;5092835;28;20402;-81
2022/11/16 01:27:51;;;;;;;1.40;0.55;;;18.50;49.10;;;;;;5092524;28;20918;-79
2022/11/16 01:30:22;;;;;;;2.67;1.35;;;18.50;47.90;;;;;;5091960;28;20812;-79
2022/11/16 01:32:49;;;;;;;5.75;3.38;;;18.50;48.50;;;;;;5092600;28;20847;-79
2022/11/16 01:35:18;;;;;;;1.58;0.95;;;18.50;48.80;;;;;;5092586;28;20365;-80
2022/11/16 01:37:45;;;;;;;1.25;0.60;;;18.90;50.00;;;;;;5093042;28;20426;-79
2022/11/16 01:40:13;;;;;;;1.10;0.70;;;19.90;50.20;;;;;;5092558;28;20447;-80
2022/11/16 01:42:40;;;;;;;2.05;0.70;;;20.90;48.00;;;;;;5092882;28;20705;-77
2022/11/16 01:45:25;;;;;;;2.05;0.77;;;22.00;47.80;;;;;;5092360;28;20401;-80
2022/11/16 01:47:53;;;;;;;1.30;0.60;;;22.00;45.00;;;;;;5092396;28;20380;-76
2022/11/16 01:50:21;;;;;;;1.02;0.50;;;22.20;45.00;;;;;;5092410;28;20397;-79
2022/11/16 01:52:56;;;;;;;3.40;0.90;;;22.00;44.10;;;;;;5092248;28;20440;-80
2022/11/16 01:55:24;;;;;;;1.40;0.60;;;21.30;45.20;;;;;;5092595;28;20411;-78
2022/11/16 01:57:51;;;;;;;1.17;0.70;;;20.70;46.60;;;;;;5092289;28;20368;-77
2022/11/16 02:00:19;;;;;;;5.32;1.15;;;20.30;46.90;;;;;;5092575;28;20725;-77
2022/11/16 02:02:46;;;;;;;2.25;0.70;;;20.00;46.60;;;;;;5092272;28;20410;-79
2022/11/16 02:05:17;;;;;;;1.35;0.70;;;19.60;47.00;;;;;;5092525;28;20443;-77
2022/11/16 02:11:06;;;;;;;2.08;0.82;;;19.50;49.10;;;;;;5092172;28;20752;-79
2022/11/16 02:13:58;;;;;;;1.80;0.70;;;19.50;50.20;;;;;;5093806;28;20398;-76
2022/11/16 02:16:37;;;;;;;2.28;0.60;;;19.40;48.60;;;;;;5096568;28;20364;-77
2022/11/16 02:19:22;;;;;;;1.58;0.75;;;19.80;47.80;;;;;;5096898;28;20375;-82
2022/11/16 02:22:08;;;;;;;0.60;0.47;;;21.10;47.50;;;;;;5096601;28;20395;-79
2022/11/16 02:25:02;;;;;;;1.60;0.70;;;22.00;45.40;;;;;;5097296;28;20356;-80
2022/11/16 02:27:32;;;;;;;0.70;0.50;;;21.80;44.30;;;;;;5096004;28;20380;-81
2022/11/16 02:30:00;;;;;;;1.20;0.60;;;21.00;45.00;;;;;;5096105;28;20436;-81
2022/11/16 02:32:37;;;;;;;6.00;0.63;;;20.10;46.40;;;;;;5095969;28;20379;-80
2022/11/16 02:35:07;;;;;;;3.53;0.60;;;19.10;52.40;;;;;;5096168;28;20353;-80
2022/11/16 02:37:42;;;;;;;4.50;0.68;;;17.70;57.80;;;;;;5096188;28;20375;-80
2022/11/16 02:40:14;;;;;;;2.75;0.50;;;16.50;60.40;;;;;;5095799;28;20396;-79
2022/11/16 02:42:53;;;;;;;2.70;0.50;;;16.00;63.00;;;;;;5096538;28;20762;-81
2022/11/16 02:45:27;;;;;;;2.10;0.63;;;15.50;64.90;;;;;;5097046;28;20411;-82
2022/11/16 02:48:02;;;;;;;2.58;0.50;;;15.20;67.10;;;;;;5095996;28;20356;-83
2022/11/16 02:50:32;;;;;;;3.10;0.60;;;15.30;68.00;;;;;;5095535;28;20392;-82
2022/11/16 02:52:59;;;;;;;1.60;0.50;;;15.10;67.50;;;;;;5095633;28;20381;-88
2022/11/16 02:55:28;;;;;;;1.50;0.43;;;15.30;68.70;;;;;;5095649;28;20391;-80
2022/11/16 02:58:08;;;;;;;0.88;0.40;;;15.50;66.30;;;;;;5095414;28;20368;-81
2022/11/16 03:00:52;;;;;;;0.85;0.60;;;15.10;67.40;;;;;;5095521;28;20388;-83
2022/11/16 03:03:29;;;;;;;2.17;0.50;;;15.00;69.60;;;;;;5096674;28;20360;-80
2022/11/16 03:06:10;;;;;;;1.40;0.47;;;14.80;69.60;;;;;;5095933;28;20361;-81
2022/11/16 03:08:50;;;;;;;2.30;0.55;;;14.90;69.80;;;;;;5095399;28;20369;-80
2022/11/16 03:14:08;;;;;;;1.00;0.40;;;14.90;68.50;;;;;;5095779;28;20355;-80
2022/11/16 03:16:41;;;;;;;1.25;0.45;;;14.60;69.80;;;;;;5095215;28;20728;-82
2022/11/16 03:19:16;;;;;;;0.55;0.30;;;14.50;69.10;;;;;;5095283;28;20379;-81
2022/11/16 03:22:03;;;;;;;0.82;0.40;;;14.00;77.70;;;;;;5095419;28;20452;-81
2022/11/16 03:24:30;;;;;;;0.95;0.50;;;13.70;81.50;;;;;;5094026;28;20727;-82
2022/11/16 03:27:20;;;;;;;0.73;0.40;;;13.70;82.20;;;;;;5094702;28;20395;-81
2022/11/16 03:30:07;;;;;;;0.67;0.60;;;13.90;80.60;;;;;;5095359;28;20397;-81
2022/11/16 03:32:54;;;;;;;0.60;0.20;;;14.20;74.10;;;;;;5094678;28;20380;-82
2022/11/16 03:35:21;;;;;;;1.80;0.30;;;14.60;72.10;;;;;;5094421;28;20377;-81
2022/11/16 03:37:52;;;;;;;1.40;0.30;;;15.10;69.30;;;;;;5095105;28;20371;-83
2022/11/16 03:40:21;;;;;;;2.92;0.60;;;15.70;67.00;;;;;;5095269;28;20361;-82
2022/11/16 03:42:49;;;;;;;1.27;0.60;;;17.10;66.00;;;;;;5094693;28;20862;-81
2022/11/16 03:45:17;;;;;;;3.40;0.40;;;17.50;60.70;;;;;;5094712;28;20468;-82
2022/11/16 03:47:45;;;;;;;0.67;0.40;;;17.30;59.70;;;;;;5094485;28;20376;-82
2022/11/16 03:50:12;;;;;;;0.73;0.50;;;17.30;60.80;;;;;;5094424;28;20403;-80
2022/11/16 03:52:40;;;;;;;0.63;0.50;;;16.90;62.20;;;;;;5094483;28;20368;-82
2022/11/16 03:55:07;;;;;;;0.50;0.40;;;16.50;63.70;;;;;;5094583;28;20394;-82
2022/11/16 03:57:34;;;;;;;0.70;0.40;;;16.60;64.10;;;;;;5094934;28;20426;-82
2022/11/16 04:00:02;;;;;;;0.32;0.30;;;18.00;61.60;;;;;;5094463;28;20457;-81
2022/11/16 04:02:29;;;;;;;0.45;0.40;;;19.00;58.50;;;;;;5094406;28;20373;-81
2022/11/16 04:24:25;;;;;;;0.68;0.50;;;17.90;55.80;;;;;;5093962;28;20371;-81
2022/11/16 04:29:44;;;;;;;0.40;0.40;;;17.50;54.30;;;;;;5094162;28;20384;-82
2022/11/16 04:37:47;;;;;;;1.23;0.88;;;18.50;50.90;;;;;;5093635;28;20713;-81
2022/11/16 04:40:19;;;;;;;0.63;0.63;;;17.90;50.60;;;;;;5093807;28;20379;-81
2022/11/16 04:42:56;;;;;;;0.60;0.20;;;17.50;50.50;;;;;;5093533;28;20404;-84
2022/11/16 04:48:10;;;;;;;0.30;0.30;;;17.40;52.90;;;;;;5093647;28;20917;-81
2022/11/16 04:50:37;;;;;;;0.40;0.30;;;17.40;52.70;;;;;;5093255;28;20971;-81
2022/11/16 04:53:06;;;;;;;1.00;0.30;;;18.10;52.00;;;;;;5093462;28;20369;-82
2022/11/16 04:55:33;;;;;;;0.30;0.30;;;18.60;51.50;;;;;;5093484;28;20372;-82
2022/11/16 04:58:01;;;;;;;1.30;0.30;;;18.70;52.20;;;;;;5093236;28;20943;-81
2022/11/16 05:00:28;;;;;;;0.40;0.20;;;18.90;50.90;;;;;;5093339;28;20368;-81
2022/11/16 05:02:55;;;;;;;0.43;0.30;;;19.30;51.10;;;;;;5093572;28;20384;-83
2022/11/16 05:05:23;;;;;;;0.40;0.30;;;19.20;51.60;;;;;;5093383;28;20934;-82
2022/11/16 05:07:50;;;;;;;0.82;0.30;;;18.30;51.50;;;;;;5093087;28;20377;-82
2022/11/16 05:10:17;;;;;;;2.10;0.38;;;17.80;52.70;;;;;;5093150;28;20403;-80
2022/11/16 05:12:44;;;;;;;2.50;0.55;;;16.80;54.10;;;;;;5093210;28;20435;-82
2022/11/16 05:15:11;;;;;;;0.93;0.37;;;15.80;55.10;;;;;;5093319;28;20376;-81
2022/11/16 05:17:38;;;;;;;1.43;0.30;;;15.50;56.00;;;;;;5093705;28;20717;-82
2022/11/16 05:22:57;;;;;;;0.70;0.20;;;16.10;56.30;;;;;;5093502;28;20708;-81
2022/11/16 05:25:26;;;;;;;0.90;0.20;;;16.60;55.50;;;;;;5092961;28;20412;-81
2022/11/16 05:27:53;;;;;;;0.57;0.35;;;15.80;57.00;;;;;;5092569;28;20481;-81
2022/11/16 05:30:20;;;;;;;0.98;0.30;;;15.40;57.90;;;;;;5092679;28;20741;-82
2022/11/16 05:32:47;;;;;;;1.27;0.30;;;15.10;58.80;;;;;;5092648;28;20365;-81
2022/11/16 05:35:14;;;;;;;0.38;0.20;;;15.10;58.10;;;;;;5093015;28;20381;-79
2022/11/16 05:37:41;;;;;;;1.70;0.25;;;15.10;58.30;;;;;;5092558;28;20724;-80
2022/11/16 05:40:08;;;;;;;0.75;0.30;;;15.20;56.50;;;;;;5092498;28;20412;-82
2022/11/16 05:42:35;;;;;;;0.40;0.30;;;15.50;57.60;;;;;;5092917;28;20876;-82
2022/11/16 05:45:02;;;;;;;0.98;0.30;;;15.90;60.00;;;;;;5091156;28;20389;-85
2022/11/16 05:47:29;;;;;;;0.50;0.22;;;16.80;58.60;;;;;;5092005;28;20372;-82
2022/11/16 05:49:56;;;;;;;0.25;0.20;;;17.90;53.80;;;;;;5092256;28;20396;-80
2022/11/16 05:52:23;;;;;;;1.02;0.30;;;19.30;51.60;;;;;;5092453;28;20896;-82
2022/11/16 05:54:50;;;;;;;0.55;0.30;;;20.30;49.60;;;;;;5092325;28;20446;-82
2022/11/16 05:57:17;;;;;;;0.57;0.35;;;20.80;47.00;;;;;;5092411;28;20381;-81
2022/11/16 05:59:44;;;;;;;1.50;0.30;;;20.60;47.60;;;;;;5092955;28;20450;-82
2022/11/16 06:02:11;;;;;;;3.08;0.40;;;20.20;47.40;;;;;;5092412;28;20860;-81
2022/11/16 06:04:38;;;;;;;0.50;0.30;;;19.30;46.80;;;;;;5092303;28;20376;-80
2022/11/16 06:07:05;;;;;;;1.90;0.40;;;19.00;48.30;;;;;;5092545;28;20840;-82
2022/11/16 06:09:32;;;;;;;1.08;0.30;;;18.70;48.90;;;;;;5092306;28;20392;-82
2022/11/16 06:11:59;;;;;;;1.13;0.32;;;19.20;47.50;;;;;;5092575;28;20387;-80
2022/11/16 06:14:26;;;;;;;0.38;0.22;;;19.30;47.20;;;;;;5092278;28;20815;-81
2022/11/16 06:16:53;;;;;;;0.95;0.30;;;19.30;48.50;;;;;;5092052;28;20831;-79
2022/11/16 06:19:20;;;;;;;0.70;0.30;;;19.70;47.30;;;;;;5092445;28;20395;-82
2022/11/16 06:21:47;;;;;;;1.23;0.30;;;20.10;47.80;;;;;;5092104;28;20923;-82
2022/11/16 06:24:14;;;;;;;1.27;0.30;;;20.20;45.30;;;;;;5092220;28;20844;-82
2022/11/16 06:26:41;;;;;;;1.20;0.30;;;20.00;45.40;;;;;;5091896;28;20434;-81
2022/11/16 06:29:08;;;;;;;0.70;0.32;;;20.30;45.90;;;;;;5092305;28;20479;-81
2022/11/16 06:31:35;;;;;;;0.80;0.40;;;20.60;45.50;;;;;;5091063;28;20395;-82
2022/11/16 06:34:03;;;;;;;1.17;0.30;;;20.10;45.10;;;;;;5092124;28;20356;-83
2022/11/16 06:36:30;;;;;;;1.50;0.40;;;19.50;46.00;;;;;;5092091;28;20408;-82
2022/11/16 06:39:01;;;;;;;0.40;0.38;;;19.50;47.40;;;;;;5092167;28;20376;-81
2022/11/16 06:41:28;;;;;;;1.30;0.40;;;20.20;46.30;;;;;;5092471;28;20455;-81
2022/11/16 06:43:56;;;;;;;1.20;0.43;;;20.40;46.20;;;;;;5092030;28;20364;-82
2022/11/16 06:46:23;;;;;;;0.80;0.40;;;20.90;46.20;;;;;;5092129;28;20388;-80
2022/11/16 06:48:50;;;;;;;1.00;0.40;;;21.50;45.40;;;;;;5091889;28;20369;-85
2022/11/16 06:51:17;;;;;;;2.10;0.47;;;22.20;44.80;;;;;;5092066;28;20388;-77
2022/11/16 06:53:44;;;;;;;0.50;0.30;;;22.60;43.40;;;;;;5091914;28;20938;-83
2022/11/16 06:56:14;;;;;;;2.75;0.40;;;23.20;43.40;;;;;;5091811;28;20408;-80
2022/11/16 06:58:41;;;;;;;0.80;0.40;;;23.80;42.50;;;;;;5092095;28;20361;-83
2022/11/16 07:01:10;;;;;;;3.15;0.60;;;24.40;41.50;;;;;;5095519;28;20364;-84
2022/11/16 07:03:38;;;;;;;2.67;0.65;;;24.50;45.50;;;;;;5095205;28;20422;-86
2022/11/16 07:06:14;;;;;;;4.35;0.73;;;24.40;48.20;;;;;;5094978;28;20380;-84
2022/11/16 07:08:41;;;;;;;2.40;0.70;;;24.30;48.80;;;;;;5095485;28;20367;-82
2022/11/16 07:11:10;;;;;;;2.90;0.70;;;24.30;49.30;;;;;;5094107;28;20400;-82
2022/11/16 07:13:38;;;;;;;2.33;0.70;;;24.30;48.60;;;;;;5095209;28;20385;-82
2022/11/16 07:16:10;;;;;;;2.25;0.60;;;24.30;48.20;;;;;;5094985;28;20384;-83
2022/11/16 07:18:39;;;;;;;1.85;0.70;;;23.80;48.10;;;;;;5094944;28;20911;-82
2022/11/16 07:21:12;;;;;;;1.20;0.50;;;23.60;49.90;;;;;;5094940;28;20383;-81
2022/11/16 07:23:40;;;;;;;1.00;0.60;;;23.70;49.50;;;;;;5092074;28;20373;-81
2022/11/16 07:26:08;;;;;;;1.60;0.68;;;23.90;47.80;;;;;;5094726;28;20486;-82
2022/11/16 07:28:35;;;;;;;4.30;0.80;;;23.50;47.40;;;;;;5095406;28;20383;-81
2022/11/16 07:31:07;;;;;;;1.88;0.80;;;22.60;50.90;;;;;;5094792;28;20856;-80
2022/11/16 07:33:35;;;;;;;1.65;0.68;;;21.60;53.80;;;;;;5094658;28;20368;-81
2022/11/16 07:36:06;;;;;;;2.30;0.70;;;20.50;55.80;;;;;;5094839;28;20385;-81
2022/11/16 07:38:34;;;;;;;5.20;0.90;;;19.60;58.10;;;;;;5096076;28;20380;-82
2022/11/16 07:41:02;;;;;;;3.05;0.70;;;19.00;59.50;;;;;;5094474;28;20416;-82
2022/11/16 07:43:30;;;;;;;2.97;1.08;;;18.70;60.60;;;;;;5093239;28;20445;-81
2022/11/16 07:46:12;;;;;;;3.58;0.80;;;18.50;61.30;;;;;;5094410;28;20376;-81
2022/11/16 07:48:41;;;;;;;2.83;0.70;;;18.20;62.40;;;;;;5094680;28;20376;-82
2022/11/16 07:51:16;;;;;;;4.53;1.10;;;18.10;63.90;;;;;;5095322;28;20898;-82
2022/11/16 07:53:44;;;;;;;2.97;1.10;;;17.90;64.30;;;;;;5095018;28;20373;-83
2022/11/16 07:56:11;;;;;;;3.20;1.10;;;17.80;65.10;;;;;;5096411;28;20398;-82
2022/11/16 07:58:39;;;;;;;1.97;0.90;;;17.30;65.60;;;;;;5095390;28;20383;-80
2022/11/16 08:01:07;;;;;;;2.63;0.85;;;17.30;66.50;;;;;;5094554;28;20867;-80
2022/11/16 08:03:36;;;;;;;3.10;1.00;;;17.20;67.10;;;;;;5094564;28;20759;-80
2022/11/16 08:06:20;;;;;;;3.78;0.93;;;17.00;67.40;;;;;;5094705;28;20373;-80
2022/11/16 08:08:47;;;;;;;3.80;1.00;;;16.80;68.00;;;;;;5094280;28;20353;-81
2022/11/16 08:11:14;;;;;;;4.80;1.05;;;16.80;68.80;;;;;;5095990;28;20387;-81
2022/11/16 08:13:42;;;;;;;2.70;1.00;;;16.70;69.30;;;;;;5096524;28;20876;-80
2022/11/16 08:16:20;;;;;;;2.45;0.80;;;16.50;69.50;;;;;;5093788;28;20385;-80
2022/11/16 08:18:48;;;;;;;2.97;0.90;;;16.40;69.90;;;;;;5095880;28;20367;-79
2022/11/16 08:21:17;;;;;;;3.58;0.93;;;16.30;71.00;;;;;;5094736;28;20386;-80
2022/11/16 08:23:44;;;;;;;2.53;1.05;;;16.20;71.40;;;;;;5094254;28;20365;-81
2022/11/16 08:26:15;;;;;;;4.50;1.00;;;16.20;72.70;;;;;;5094159;28;20406;-81
2022/11/16 08:28:50;;;;;;;2.67;0.90;;;16.10;72.90;;;;;;5094255;28;20481;-77
2022/11/16 08:31:20;;;;;;;3.23;1.10;;;16.00;72.90;;;;;;5094619;28;20386;-79
2022/11/16 08:33:47;;;;;;;2.55;0.90;;;15.80;74.40;;;;;;5092946;28;20455;-80
2022/11/16 08:36:18;;;;;;;4.30;0.93;;;15.80;74.50;;;;;;5094033;28;20430;-78
2022/11/16 08:38:47;;;;;;;3.80;0.93;;;15.70;73.90;;;;;;5093703;28;20377;-80
2022/11/16 08:41:15;;;;;;;2.75;1.30;;;15.70;74.70;;;;;;5092526;28;20400;-79
2022/11/16 08:43:45;;;;;;;2.40;0.80;;;15.60;76.20;;;;;;5093652;28;20376;-78
2022/11/16 08:46:14;;;;;;;3.53;0.80;;;15.50;77.50;;;;;;5093005;28;20373;-80
2022/11/16 08:48:41;;;;;;;1.77;0.70;;;15.50;78.30;;;;;;5095028;28;20365;-80
2022/11/16 08:51:14;;;;;;;3.07;0.70;;;15.30;79.30;;;;;;5093504;28;20784;-80
2022/11/16 08:53:47;;;;;;;3.28;1.17;;;15.30;80.00;;;;;;5094246;28;20372;-79
2022/11/16 08:56:16;;;;;;;1.73;0.80;;;15.20;80.60;;;;;;5094516;28;20709;-79
2022/11/16 08:58:45;;;;;;;1.20;0.90;;;15.00;81.40;;;;;;5093283;28;20377;-79
2022/11/16 09:01:23;;;;;;;3.47;1.73;;;14.90;85.30;;;;;;5092686;28;20368;-80
2022/11/16 09:03:51;;;;;;;1.27;1.00;;;14.70;87.80;;;;;;5094243;28;20371;-80
2022/11/16 09:06:18;;;;;;;2.13;0.60;;;14.50;89.10;;;;;;5092772;28;20395;-79
2022/11/16 09:08:46;;;;;;;2.58;0.80;;;14.20;90.20;;;;;;5095927;28;20396;-78
2022/11/16 09:11:16;;;;;;;2.50;1.00;;;14.00;90.90;;;;;;5095010;28;20733;-78
2022/11/16 09:13:45;;;;;;;2.00;0.65;;;13.90;91.10;;;;;;5094293;28;20818;-80
2022/11/16 09:16:15;;;;;;;2.40;0.63;;;13.90;92.10;;;;;;5094586;28;20452;-78
2022/11/16 09:18:45;;;;;;;3.10;0.60;;;13.80;92.00;;;;;;5094842;28;20387;-80
2022/11/16 09:21:34;;;;;;;2.13;0.80;;;13.70;92.00;;;;;;5093952;28;20951;-78
2022/11/16 09:24:02;;;;;;;1.55;0.90;;;13.70;90.70;;;;;;5093789;28;20372;-79
2022/11/16 09:29:26;;;;;;;1.92;0.70;;;13.90;90.00;;;;;;5093684;28;20407;-77
2022/11/16 09:31:54;;;;;;;1.48;0.55;;;14.00;90.30;;;;;;5093255;28;20392;-79
2022/11/16 09:34:21;;;;;;;2.00;0.60;;;14.10;90.50;;;;;;5093461;28;20812;-79
2022/11/16 09:36:48;;;;;;;2.05;0.57;;;14.10;90.20;;;;;;5093438;28;20380;-77
2022/11/16 09:39:15;;;;;;;4.38;0.82;;;14.10;90.00;;;;;;5093730;28;20814;-79
2022/11/16 09:42:09;;;;;;;3.38;0.50;;;14.10;90.00;;;;;;5094398;28;20375;-79
2022/11/16 09:44:51;;;;;;;1.95;0.60;;;14.10;90.00;;;;;;5094838;28;20368;-80
2022/11/16 09:47:25;;;;;;;0.97;0.50;;;13.90;90.30;;;;;;5099164;28;20756;-79
2022/11/16 09:49:54;;;;;;;2.25;0.80;;;13.90;90.80;;;;;;5099287;28;20909;-80
2022/11/16 09:52:29;;;;;;;3.08;1.60;;;13.70;90.30;;;;;;5097207;28;20364;-79
2022/11/16 09:55:00;;;;;;;3.05;1.70;;;13.70;90.60;;;;;;5098446;28;20844;-78
2022/11/16 09:57:36;;;;;;;2.58;1.60;;;13.60;90.90;;;;;;5101609;28;20690;-80
2022/11/16 10:00:22;;;;;;;1.88;1.30;;;13.60;91.20;;;;;;5102129;28;20881;-79
2022/11/16 10:03:12;;;;;;;2.00;0.70;;;13.70;91.30;;;;;;5099121;28;20365;-80
2022/11/16 10:05:43;;;;;;;2.20;0.90;;;13.80;91.20;;;;;;5101210;28;20364;-78
2022/11/16 10:08:26;;;;;;;3.50;0.80;;;13.70;91.70;;;;;;5105797;28;20397;-78
2022/11/16 10:11:08;;;;;;;4.75;0.90;;;13.80;91.40;;;;;;5107525;28;20421;-79
2022/11/16 10:14:07;;;;;;;9.18;1.60;;;13.70;91.50;;;;;;5108374;28;20378;-78
2022/11/16 10:16:49;;;;;;;4.63;0.90;;;13.60;91.60;;;;;;5064714;28;20380;-75
2022/11/16 10:19:21;;;;;;;3.42;0.80;;;13.40;92.00;;;;;;5063596;28;20383;-79
2022/11/16 10:22:05;;;;;;;3.17;1.08;;;13.30;92.60;;;;;;5062930;28;20380;-79
2022/11/16 10:24:38;;;;;;;2.70;0.80;;;13.40;93.00;;;;;;5065231;28;20376;-78
2022/11/16 10:27:18;;;;;;;4.03;1.00;;;13.50;92.50;;;;;;5066210;28;20410;-79
2022/11/16 10:30:03;;;;;;;6.38;1.40;;;13.50;92.50;;;;;;5060495;28;20430;-79
2022/11/16 10:32:40;;;;;;;11.10;1.73;;;13.50;92.30;;;;;;5052431;28;20380;-78
2022/11/16 10:35:23;;;;;;;8.57;1.30;;;13.60;92.50;;;;;;5053890;28;20789;-80
2022/11/16 10:37:51;;;;;;;9.75;1.17;;;13.60;92.20;;;;;;5054970;28;20441;-79
2022/11/16 10:40:24;;;;;;;7.25;1.20;;;13.60;91.90;;;;;;5054939;28;20403;-79
2022/11/16 10:43:15;;;;;;;13.60;1.23;;;13.60;92.20;;;;;;5038871;28;20376;-79
2022/11/16 10:45:58;;;;;;;16.73;1.63;;;13.60;92.40;;;;;;5049734;28;20382;-78
2022/11/16 10:48:42;;;;;;;19.30;1.90;;;13.60;92.50;;;;;;5054437;28;20459;-79
2022/11/16 10:51:10;;;;;;;18.70;2.07;;;13.60;93.00;;;;;;5054216;28;20431;-78
2022/11/16 10:53:39;;;;;;;19.58;2.10;;;13.60;93.30;;;;;;5087255;28;20369;-79
2022/11/16 10:56:38;;;;;;;16.45;1.90;;;13.50;92.90;;;;;;5095677;28;20368;-79
2022/11/16 10:59:07;;;;;;;18.13;2.25;;;13.50;92.90;;;;;;5053512;28;20380;-80
2022/11/16 11:01:43;;;;;;;24.02;2.30;;;13.50;93.30;;;;;;5053265;28;20865;-79
2022/11/16 11:04:17;;;;;;;17.08;1.98;;;13.50;93.60;;;;;;5053485;28;20379;-79
2022/11/16 11:06:46;;;;;;;17.90;1.80;;;13.40;93.70;;;;;;5053407;28;20960;-79
2022/11/16 11:09:36;;;;;;;16.00;1.80;;;13.40;93.50;;;;;;5052827;28;20371;-78
2022/11/16 11:12:55;;;;;;;7.20;1.08;;;13.40;93.20;;;;;;5053262;28;20446;-79
2022/11/16 11:15:25;;;;;;;9.10;1.10;;;13.20;93.30;;;;;;5044787;28;20399;-79
2022/11/16 11:18:12;;;;;;;7.47;1.10;;;13.00;94.10;;;;;;5053121;28;20380;-79
2022/11/16 11:20:42;;;;;;;6.63;0.90;;;12.90;94.40;;;;;;5053198;28;20375;-80
2022/11/16 11:23:17;;;;;;;4.18;1.00;;;12.70;95.00;;;;;;5052809;28;20384;-79
2022/11/16 11:25:57;;;;;;;3.38;0.85;;;12.70;95.70;;;;;;5053126;28;20442;-79
2022/11/16 11:28:48;;;;;;;10.32;1.20;;;12.70;95.80;;;;;;5052759;28;20646;-79
2022/11/16 11:31:41;;;;;;;13.35;1.77;;;12.80;96.10;;;;;;5052479;28;20396;-78
2022/11/16 11:34:29;;;;;;;14.82;1.77;;;12.90;96.40;;;;;;5051976;28;20459;-78
2022/11/16 11:37:02;;;;;;;16.48;1.80;;;13.10;95.90;;;;;;5094959;28;20360;-79
2022/11/16 11:39:36;;;;;;;28.10;2.65;;;13.20;95.50;;;;;;5094909;28;20381;-79
2022/11/16 11:42:12;;;;;;;28.13;2.55;;;13.30;94.80;;;;;;5094570;28;20387;-79
2022/11/16 11:44:48;;;;;;;14.73;1.70;;;13.20;95.10;;;;;;5094784;28;20368;-79
2022/11/16 11:47:25;;;;;;;6.35;1.05;;;13.10;95.50;;;;;;5094062;28;20364;-78
2022/11/16 11:50:05;;;;;;;5.60;1.10;;;12.90;95.80;;;;;;5094341;28;20392;-79
2022/11/16 11:52:46;;;;;;;3.80;1.20;;;12.80;96.20;;;;;;5094394;28;20360;-79
2022/11/16 11:55:16;;;;;;;4.28;1.20;;;12.60;97.20;;;;;;5094821;28;20430;-78
2022/11/16 11:57:46;;;;;;;3.75;1.42;;;12.50;98.00;;;;;;5094229;28;20445;-79
2022/11/16 12:00:14;;;;;;;2.43;1.00;;;12.50;98.70;;;;;;5092903;28;20717;-78
2022/11/16 12:02:56;;;;;;;3.72;1.10;;;12.50;99.70;;;;;;5094216;28;20455;-79
2022/11/16 12:05:45;;;;;;;2.88;0.93;;;12.70;99.80;;;;;;5092910;28;20729;-80
2022/11/16 12:08:28;;;;;;;4.27;1.00;;;12.80;99.50;;;;;;5094550;28;20750;-79
2022/11/16 12:11:14;;;;;;;2.47;1.00;;;12.80;99.40;;;;;;5094601;28;20400;-78
2022/11/16 12:14:00;;;;;;;3.65;1.00;;;12.80;99.30;;;;;;5093985;28;20821;-80
2022/11/16 12:16:53;;;;;;;1.88;0.80;;;12.90;99.90;;;;;;5094293;28;20390;-79
2022/11/16 12:19:31;;;;;;;1.52;0.80;;;12.90;99.90;;;;;;5093882;28;20378;-79
2022/11/16 12:22:28;;;;;;;4.32;0.88;;;13.00;99.90;;;;;;5094084;28;20402;-79
2022/11/16 12:25:25;;;;;;;2.78;0.80;;;13.10;99.90;;;;;;5093852;28;20440;-79
2022/11/16 12:28:13;;;;;;;2.88;0.90;;;13.10;99.90;;;;;;5093615;28;20392;-79
2022/11/16 12:30:58;;;;;;;1.45;0.70;;;13.10;99.90;;;;;;5094252;28;20408;-79
2022/11/16 12:33:41;;;;;;;4.15;0.88;;;13.10;99.90;;;;;;5093557;28;20357;-78
2022/11/16 12:36:40;;;;;;;2.55;0.90;;;13.00;99.90;;;;;;5094046;28;20369;-78
2022/11/16 12:39:48;;;;;;;1.88;0.80;;;13.00;99.90;;;;;;5093726;28;20467;-79
2022/11/16 12:42:33;;;;;;;1.55;0.63;;;13.00;99.90;;;;;;5051202;28;20392;-79
2022/11/16 12:45:27;;;;;;;2.00;0.70;;;13.00;99.90;;;;;;5051660;28;20562;-79
2022/11/16 12:48:18;;;;;;;1.75;0.90;;;12.90;99.90;;;;;;5050975;28;20380;-78
2022/11/16 12:51:05;;;;;;;2.08;0.90;;;13.00;99.90;;;;;;5050766;28;20403;-80
2022/11/16 12:53:50;;;;;;;1.73;0.90;;;12.90;99.90;;;;;;5051143;28;20839;-79
2022/11/16 12:56:38;;;;;;;1.35;0.73;;;12.90;99.90;;;;;;5051237;28;20368;-79
2022/11/16 12:59:17;;;;;;;1.10;0.80;;;12.80;99.90;;;;;;5050977;28;20400;-79
2022/11/16 13:01:49;;;;;;;1.67;0.80;;;12.70;99.90;;;;;;5051327;28;20411;-79
2022/11/16 13:04:26;;;;;;;2.95;0.90;;;12.60;99.90;;;;;;5051242;28;20368;-78
2022/11/16 13:07:26;;;;;;;1.38;0.80;;;12.40;99.90;;;;;;5050765;28;20848;-79
2022/11/16 13:10:05;;;;;;;1.40;0.70;;;12.30;99.90;;;;;;5048661;28;20414;-79
2022/11/16 13:12:35;;;;;;;0.60;0.60;;;12.10;99.90;;;;;;5050702;28;20379;-79
2022/11/16 13:15:03;;;;;;;2.45;0.80;;;12.00;99.90;;;;;;5050563;28;20384;-78
2022/11/16 13:17:38;;;;;;;1.40;0.80;;;11.90;99.90;;;;;;5055581;28;20911;-78
2022/11/16 13:20:29;;;;;;;1.80;0.68;;;11.90;99.90;;;;;;5092720;28;20452;-78
2022/11/16 13:23:06;;;;;;;0.85;0.50;;;11.80;99.90;;;;;;5093263;28;20359;-78
2022/11/16 13:25:59;;;;;;;1.75;0.70;;;11.70;99.90;;;;;;5091656;28;20864;-78
2022/11/16 13:28:39;;;;;;;0.70;0.68;;;11.70;99.90;;;;;;5051062;28;20392;-78
2022/11/16 13:31:17;;;;;;;1.13;0.70;;;11.60;99.90;;;;;;5050513;28;20407;-78
2022/11/16 13:33:52;;;;;;;2.15;1.10;;;11.50;99.90;;;;;;5050575;28;20755;-79
2022/11/16 13:36:44;;;;;;;1.40;0.80;;;11.50;99.90;;;;;;5050418;28;20411;-79
2022/11/16 13:39:16;;;;;;;1.73;0.80;;;11.40;99.90;;;;;;5050517;28;20479;-79
2022/11/16 13:41:46;;;;;;;1.33;0.73;;;11.30;99.90;;;;;;5050577;28;20368;-79
2022/11/16 13:44:19;;;;;;;0.77;0.70;;;11.30;99.90;;;;;;5049948;28;20882;-78
2022/11/16 13:47:06;;;;;;;1.80;0.80;;;11.20;99.90;;;;;;5050305;28;20724;-79
2022/11/16 13:49:37;;;;;;;0.90;0.70;;;11.10;99.90;;;;;;5050236;28;20395;-77
2022/11/16 13:52:11;;;;;;;2.10;0.60;;;11.10;99.90;;;;;;5050002;28;21040;-78
2022/11/16 13:54:39;;;;;;;2.40;0.80;;;11.10;99.90;;;;;;5050190;28;20376;-79
2022/11/16 13:57:25;;;;;;;3.72;0.63;;;11.00;99.90;;;;;;5049937;28;20431;-79
2022/11/16 14:00:00;;;;;;;3.83;0.90;;;11.00;99.90;;;;;;5050734;28;20383;-80
2022/11/16 14:02:41;;;;;;;2.92;0.90;;;11.00;99.90;;;;;;5049993;28;20387;-78